createdAt,value
2023-04-27T00:02:14.658Z,99.90
2023-04-27T00:04:47.752Z,99.90
2023-04-27T00:07:20.898Z,99.90
2023-04-27T00:09:53.406Z,99.90
2023-04-27T00:12:26.274Z,99.90
2023-04-27T00:14:58.758Z,99.90
2023-04-27T00:17:32.325Z,99.90
2023-04-27T00:20:06.239Z,99.90
2023-04-27T00:22:39.843Z,99.90
2023-04-27T00:25:12.554Z,99.90
2023-04-27T00:27:45.302Z,99.90
2023-04-27T00:30:17.840Z,99.90
2023-04-27T00:32:50.814Z,99.90
2023-04-27T00:35:23.438Z,99.90
2023-04-27T00:37:56.469Z,99.90
2023-04-27T00:40:29.000Z,99.90
2023-04-27T00:43:01.817Z,99.90
2023-04-27T00:45:41.401Z,99.90
2023-04-27T00:48:14.266Z,99.90
2023-04-27T00:50:46.830Z,99.90
2023-04-27T00:53:20.122Z,99.90
2023-04-27T00:55:52.651Z,99.90
2023-04-27T00:58:26.127Z,99.90
2023-04-27T01:00:59.900Z,99.90
2023-04-27T01:03:32.888Z,99.90
2023-04-27T01:06:05.724Z,99.90
2023-04-27T01:08:38.466Z,99.90
2023-04-27T01:11:11.008Z,99.90
2023-04-27T01:13:43.797Z,99.90
2023-04-27T01:16:18.378Z,99.90
2023-04-27T01:18:51.191Z,99.90
2023-04-27T01:21:23.685Z,99.90
2023-04-27T01:23:56.727Z,99.90
2023-04-27T01:26:29.199Z,99.90
2023-04-27T01:29:02.012Z,99.90
2023-04-27T01:31:34.620Z,99.90
2023-04-27T01:34:07.972Z,99.90
2023-04-27T01:36:40.622Z,99.90
2023-04-27T01:39:13.548Z,99.90
2023-04-27T01:41:46.240Z,99.90
2023-04-27T01:44:21.024Z,99.90
2023-04-27T01:46:53.550Z,99.90
2023-04-27T01:49:26.601Z,99.90
2023-04-27T01:51:59.246Z,99.90
2023-04-27T01:54:32.070Z,99.90
2023-04-27T01:57:04.590Z,99.90
2023-04-27T01:59:37.370Z,99.90
2023-04-27T02:02:09.888Z,99.90
2023-04-27T02:04:43.477Z,99.90
2023-04-27T02:07:16.252Z,99.90
2023-04-27T02:09:49.102Z,99.90
2023-04-27T02:12:21.570Z,99.90
2023-04-27T02:14:54.310Z,99.90
2023-04-27T02:17:26.864Z,99.90
2023-04-27T02:19:59.610Z,99.90
2023-04-27T02:22:32.127Z,99.90
2023-04-27T02:25:05.480Z,99.90
2023-04-27T02:27:41.901Z,99.90
2023-04-27T02:30:15.552Z,99.90
2023-04-27T02:32:48.588Z,99.90
2023-04-27T02:35:21.610Z,99.90
2023-04-27T02:37:54.112Z,99.90
2023-04-27T02:40:26.897Z,99.90
2023-04-27T02:42:59.397Z,99.90
2023-04-27T02:45:32.143Z,99.90
2023-04-27T02:48:04.814Z,99.90
2023-04-27T02:50:42.288Z,99.90
2023-04-27T02:53:15.767Z,99.90
2023-04-27T02:55:49.008Z,99.90
2023-04-27T02:58:22.695Z,99.90
2023-04-27T03:00:57.162Z,99.90
2023-04-27T03:03:29.786Z,99.90
2023-04-27T03:06:03.613Z,99.90
2023-04-27T03:08:36.111Z,99.90
2023-04-27T03:11:09.642Z,99.90
2023-04-27T03:13:42.244Z,99.90
2023-04-27T03:16:15.391Z,99.90
2023-04-27T03:18:47.953Z,99.90
2023-04-27T03:21:21.024Z,99.90
2023-04-27T03:23:53.736Z,99.90
2023-04-27T03:26:26.778Z,99.90
2023-04-27T03:28:59.349Z,99.90
2023-04-27T03:31:32.228Z,99.90
2023-04-27T03:34:04.761Z,99.90
2023-04-27T03:36:37.516Z,99.90
2023-04-27T03:39:09.981Z,99.90
2023-04-27T03:41:42.890Z,99.90
2023-04-27T03:44:15.802Z,99.90
2023-04-27T03:46:48.526Z,99.90
2023-04-27T03:49:21.021Z,99.90
2023-04-27T03:51:53.775Z,99.90
2023-04-27T03:54:26.245Z,99.90
2023-04-27T03:56:58.989Z,99.90
2023-04-27T03:59:31.576Z,99.90
2023-04-27T04:02:05.580Z,99.90
2023-04-27T04:04:38.412Z,99.90
2023-04-27T04:07:11.314Z,99.90
2023-04-27T04:09:45.071Z,99.90
2023-04-27T04:12:17.808Z,99.90
2023-04-27T04:14:51.065Z,99.90
2023-04-27T04:17:24.131Z,99.90
2023-04-27T04:19:56.927Z,99.90
2023-04-27T04:22:29.972Z,99.90
2023-04-27T04:25:02.710Z,99.90
2023-04-27T04:27:36.153Z,99.90
2023-04-27T04:30:09.024Z,99.90
2023-04-27T04:32:41.976Z,99.90
2023-04-27T04:35:14.531Z,99.90
2023-04-27T04:37:47.501Z,99.90
2023-04-27T04:40:19.986Z,99.90
2023-04-27T04:42:53.016Z,99.90
2023-04-27T04:45:26.103Z,99.90
2023-04-27T04:48:01.039Z,99.90
2023-04-27T04:50:33.689Z,99.90
2023-04-27T04:53:06.634Z,99.90
2023-04-27T04:55:39.227Z,99.90
2023-04-27T04:58:12.283Z,99.90
2023-04-27T05:00:44.740Z,99.90
2023-04-27T05:03:17.771Z,99.90
2023-04-27T05:05:50.441Z,99.90
2023-04-27T05:08:23.258Z,99.90
2023-04-27T05:10:55.898Z,99.90
2023-04-27T05:13:29.113Z,99.90
2023-04-27T05:16:05.595Z,99.90
2023-04-27T05:18:38.461Z,99.90
2023-04-27T05:21:20.722Z,99.90
2023-04-27T05:23:53.485Z,99.90
2023-04-27T05:26:26.178Z,99.90
2023-04-27T05:28:58.928Z,99.90
2023-04-27T05:31:31.422Z,99.90
2023-04-27T05:34:04.241Z,99.90
2023-04-27T05:36:37.069Z,99.90
2023-04-27T05:39:10.100Z,99.90
2023-04-27T05:41:45.482Z,99.90
2023-04-27T05:44:18.790Z,99.90
2023-04-27T05:46:51.981Z,99.90
2023-04-27T05:49:25.055Z,99.90
2023-04-27T05:51:59.192Z,99.90
2023-04-27T05:54:34.386Z,99.90
2023-04-27T05:57:06.956Z,99.90
2023-04-27T05:59:39.949Z,99.90
2023-04-27T06:02:12.563Z,99.90
2023-04-27T06:04:46.732Z,99.90
2023-04-27T06:07:19.337Z,99.90
2023-04-27T06:09:52.143Z,99.90
2023-04-27T06:12:27.796Z,99.90
2023-04-27T06:15:12.630Z,99.90
2023-04-27T06:17:46.462Z,99.90
2023-04-27T06:20:26.522Z,99.90
2023-04-27T06:23:02.581Z,99.90
2023-04-27T06:25:41.152Z,99.90
2023-04-27T06:28:13.661Z,99.90
2023-04-27T06:30:46.439Z,99.90
2023-04-27T06:33:18.958Z,99.90
2023-04-27T06:35:52.011Z,99.90
2023-04-27T06:38:24.523Z,99.90
2023-04-27T06:40:57.340Z,99.90
2023-04-27T06:43:30.835Z,99.90
2023-04-27T06:46:03.798Z,99.90
2023-04-27T06:48:36.515Z,99.90
2023-04-27T06:51:09.346Z,99.90
2023-04-27T06:53:41.942Z,99.90
2023-04-27T06:56:14.681Z,99.90
2023-04-27T06:58:47.202Z,99.90
2023-04-27T07:01:19.991Z,99.90
2023-04-27T07:03:52.898Z,99.80
2023-04-27T07:06:26.887Z,98.70
2023-04-27T07:09:00.047Z,96.30
2023-04-27T07:11:32.861Z,94.80
2023-04-27T07:14:05.767Z,94.60
2023-04-27T07:16:39.210Z,95.00
2023-04-27T07:19:12.027Z,94.00
2023-04-27T07:21:45.090Z,93.20
2023-04-27T07:24:17.607Z,91.40
2023-04-27T07:26:50.365Z,90.80
2023-04-27T07:29:26.984Z,90.70
2023-04-27T07:32:06.293Z,86.00
2023-04-27T07:34:52.106Z,86.70
2023-04-27T07:37:26.790Z,85.50
2023-04-27T07:39:59.746Z,85.80
2023-04-27T07:42:32.546Z,85.20
2023-04-27T07:45:05.743Z,82.30
2023-04-27T07:47:39.235Z,82.50
2023-04-27T07:50:12.812Z,81.90
2023-04-27T07:52:45.587Z,80.40
2023-04-27T07:55:18.197Z,81.20
2023-04-27T07:57:55.245Z,79.80
2023-04-27T08:00:27.930Z,80.20
2023-04-27T08:03:01.212Z,79.60
2023-04-27T08:05:34.065Z,80.30
2023-04-27T08:08:07.480Z,79.60
2023-04-27T08:10:40.410Z,81.60
2023-04-27T08:13:13.142Z,78.00
2023-04-27T08:15:45.734Z,78.00
2023-04-27T08:18:19.417Z,78.60
2023-04-27T08:20:52.421Z,76.90
2023-04-27T08:23:28.538Z,78.10
2023-04-27T08:26:01.416Z,79.30
2023-04-27T08:28:34.361Z,76.40
2023-04-27T08:31:07.089Z,74.30
2023-04-27T08:33:39.883Z,74.00
2023-04-27T08:36:12.370Z,74.60
2023-04-27T08:38:46.254Z,75.10
2023-04-27T08:41:23.483Z,76.30
2023-04-27T08:43:57.942Z,74.10
2023-04-27T08:46:31.813Z,74.10
2023-04-27T08:49:04.902Z,74.20
2023-04-27T08:51:37.496Z,73.10
2023-04-27T08:54:10.347Z,72.70
2023-04-27T08:56:42.829Z,72.40
2023-04-27T08:59:16.891Z,73.00
2023-04-27T09:01:51.248Z,74.00
2023-04-27T09:04:24.633Z,73.60
2023-04-27T09:06:57.293Z,74.00
2023-04-27T09:09:30.280Z,74.20
2023-04-27T09:12:13.490Z,76.80
2023-04-27T09:15:03.798Z,77.20
2023-04-27T09:17:38.855Z,80.60
2023-04-27T09:20:15.214Z,80.50
2023-04-27T09:22:49.816Z,81.00
2023-04-27T09:25:26.790Z,79.90
2023-04-27T09:28:00.825Z,79.90
2023-04-27T09:30:33.709Z,77.90
2023-04-27T09:33:06.522Z,77.10
2023-04-27T09:35:42.085Z,74.50
2023-04-27T09:38:15.912Z,73.30
2023-04-27T09:40:52.009Z,73.10
2023-04-27T09:43:25.050Z,73.20
2023-04-27T09:45:58.843Z,72.60
2023-04-27T09:48:31.505Z,73.70
2023-04-27T09:51:04.377Z,73.90
2023-04-27T09:53:41.813Z,73.00
2023-04-27T09:56:36.518Z,72.40
2023-04-27T09:59:26.983Z,73.00
2023-04-27T10:02:10.041Z,73.00
2023-04-27T10:05:11.953Z,70.50
2023-04-27T10:07:45.968Z,70.90
2023-04-27T10:10:19.150Z,72.00
2023-04-27T10:13:02.053Z,71.70
2023-04-27T10:15:40.206Z,72.60
2023-04-27T10:18:13.257Z,72.10
2023-04-27T10:20:46.675Z,71.30
2023-04-27T10:23:29.097Z,70.00
2023-04-27T10:26:07.684Z,68.40
2023-04-27T10:28:41.597Z,69.10
2023-04-27T10:31:15.221Z,65.20
2023-04-27T10:33:48.004Z,65.90
2023-04-27T10:36:20.581Z,63.70
2023-04-27T10:38:57.076Z,64.10
2023-04-27T10:41:35.961Z,63.70
2023-04-27T10:44:20.689Z,64.40
2023-04-27T10:46:54.619Z,65.00
2023-04-27T10:49:28.998Z,66.70
2023-04-27T10:52:05.084Z,65.70
2023-04-27T10:54:39.625Z,65.50
2023-04-27T10:57:12.760Z,64.70
2023-04-27T10:59:51.750Z,63.50
2023-04-27T11:02:29.349Z,60.50
2023-04-27T11:05:07.568Z,60.30
2023-04-27T11:07:40.295Z,60.40
2023-04-27T11:10:20.569Z,60.50
2023-04-27T11:12:53.099Z,61.10
2023-04-27T11:15:26.390Z,60.40
2023-04-27T11:18:06.068Z,58.40
2023-04-27T11:20:38.916Z,59.40
2023-04-27T11:23:13.837Z,60.40
2023-04-27T11:25:46.822Z,60.40
2023-04-27T11:28:20.562Z,61.60
2023-04-27T11:31:00.028Z,61.90
2023-04-27T11:33:33.126Z,61.60
2023-04-27T11:36:17.319Z,61.90
2023-04-27T11:38:50.136Z,61.90
2023-04-27T11:41:23.346Z,60.40
2023-04-27T11:43:55.839Z,60.50
2023-04-27T11:46:28.964Z,59.70
2023-04-27T11:49:15.394Z,60.10
2023-04-27T11:51:48.941Z,58.30
2023-04-27T11:54:29.747Z,58.70
2023-04-27T11:57:06.377Z,59.70
2023-04-27T11:59:38.917Z,60.40
2023-04-27T12:02:11.950Z,61.00
2023-04-27T12:04:44.837Z,60.80
2023-04-27T12:07:18.483Z,61.70
2023-04-27T12:09:51.022Z,60.50
2023-04-27T12:12:24.483Z,59.40
2023-04-27T12:14:58.897Z,59.10
2023-04-27T12:17:32.076Z,58.40
2023-04-27T12:20:05.431Z,58.40
2023-04-27T12:22:38.777Z,59.00
2023-04-27T12:25:11.298Z,59.10
2023-04-27T12:27:47.456Z,59.00
2023-04-27T12:30:24.037Z,60.60
2023-04-27T12:33:00.899Z,60.10
2023-04-27T12:35:33.395Z,59.20
2023-04-27T12:38:06.191Z,59.40
2023-04-27T12:40:38.752Z,59.20
2023-04-27T12:43:13.130Z,59.60
2023-04-27T12:45:45.828Z,59.40
2023-04-27T12:48:18.694Z,59.50
2023-04-27T12:50:51.256Z,60.30
2023-04-27T12:53:24.085Z,59.60
2023-04-27T12:55:56.661Z,60.70
2023-04-27T12:58:29.686Z,60.50
2023-04-27T13:01:04.615Z,59.60
2023-04-27T13:03:37.577Z,58.60
2023-04-27T13:06:10.622Z,57.30
2023-04-27T13:08:43.727Z,56.80
2023-04-27T13:11:17.005Z,57.60
2023-04-27T13:13:49.820Z,59.60
2023-04-27T13:16:25.310Z,57.20
2023-04-27T13:18:58.560Z,57.40
2023-04-27T13:21:31.191Z,57.10
2023-04-27T13:24:04.199Z,57.30
2023-04-27T13:26:38.181Z,58.20
2023-04-27T13:29:11.054Z,58.30
2023-04-27T13:31:44.211Z,59.50
2023-04-27T13:34:18.036Z,59.40
2023-04-27T13:36:50.509Z,59.60
2023-04-27T13:39:25.597Z,58.30
2023-04-27T13:41:58.099Z,58.80
2023-04-27T13:44:31.903Z,58.90
2023-04-27T13:47:05.180Z,58.50
2023-04-27T13:49:38.368Z,57.90
2023-04-27T13:52:11.521Z,57.30
2023-04-27T13:54:46.409Z,57.50
2023-04-27T13:57:18.939Z,57.60
2023-04-27T13:59:51.711Z,56.80
2023-04-27T14:02:24.859Z,57.10
2023-04-27T14:05:03.775Z,57.40
2023-04-27T14:07:39.304Z,56.30
2023-04-27T14:10:12.110Z,57.90
2023-04-27T14:12:47.607Z,58.30
2023-04-27T14:15:20.493Z,57.90
2023-04-27T14:17:53.093Z,56.20
2023-04-27T14:20:28.021Z,55.80
2023-04-27T14:23:01.535Z,57.80
2023-04-27T14:25:35.098Z,57.30
2023-04-27T14:28:09.679Z,56.40
2023-04-27T14:30:42.674Z,55.90
2023-04-27T14:33:15.228Z,55.40
2023-04-27T14:35:48.036Z,54.80
2023-04-27T14:38:20.578Z,54.50
2023-04-27T14:40:58.158Z,53.90
2023-04-27T14:43:31.815Z,52.90
2023-04-27T14:46:19.624Z,53.10
2023-04-27T14:48:53.634Z,53.50
2023-04-27T14:51:26.772Z,54.60
2023-04-27T14:53:59.393Z,55.70
2023-04-27T14:56:32.212Z,55.30
2023-04-27T14:59:05.579Z,55.50
2023-04-27T15:01:38.477Z,55.40
2023-04-27T15:04:12.226Z,56.20
2023-04-27T15:06:45.485Z,56.00
2023-04-27T15:09:18.044Z,57.10
2023-04-27T15:11:50.900Z,56.90
2023-04-27T15:14:23.453Z,57.10
2023-04-27T15:16:56.571Z,57.00
2023-04-27T15:19:29.038Z,57.50
2023-04-27T15:22:01.921Z,57.20
2023-04-27T15:24:34.459Z,56.60
2023-04-27T15:27:09.717Z,56.10
2023-04-27T15:29:43.005Z,54.70
2023-04-27T15:32:16.663Z,52.50
2023-04-27T15:34:50.024Z,51.10
2023-04-27T15:37:23.594Z,50.00
2023-04-27T15:39:56.536Z,49.20
2023-04-27T15:42:29.754Z,49.40
2023-04-27T15:45:02.322Z,50.20
2023-04-27T15:47:35.103Z,50.90
2023-04-27T15:50:08.312Z,52.60
2023-04-27T15:52:41.128Z,54.20
2023-04-27T15:55:13.661Z,55.70
2023-04-27T15:57:46.455Z,57.80
2023-04-27T16:00:22.195Z,58.80
2023-04-27T16:02:55.484Z,59.50
2023-04-27T16:05:28.383Z,60.50
2023-04-27T16:08:01.225Z,61.40
2023-04-27T16:10:34.028Z,61.30
2023-04-27T16:13:06.805Z,61.70
2023-04-27T16:15:39.293Z,61.20
2023-04-27T16:18:12.242Z,61.40
2023-04-27T16:20:44.785Z,62.00
2023-04-27T16:23:17.653Z,61.90
2023-04-27T16:25:50.216Z,61.50
2023-04-27T16:28:23.061Z,61.20
2023-04-27T16:30:55.543Z,59.40
2023-04-27T16:33:28.446Z,58.10
2023-04-27T16:36:01.262Z,56.00
2023-04-27T16:38:34.316Z,55.10
2023-04-27T16:41:06.928Z,53.80
2023-04-27T16:43:39.741Z,53.50
2023-04-27T16:46:13.382Z,51.60
2023-04-27T16:48:46.505Z,49.40
2023-04-27T16:51:19.094Z,48.50
2023-04-27T16:53:51.938Z,48.30
2023-04-27T16:56:32.668Z,48.00
2023-04-27T16:59:05.593Z,49.10
2023-04-27T17:01:38.486Z,50.80
2023-04-27T17:04:12.033Z,52.10
2023-04-27T17:06:47.109Z,53.20
2023-04-27T17:09:19.917Z,53.80
2023-04-27T17:11:52.487Z,53.60
2023-04-27T17:14:25.328Z,53.30
2023-04-27T17:16:57.814Z,52.30
2023-04-27T17:19:30.990Z,51.90
2023-04-27T17:22:04.248Z,51.20
2023-04-27T17:24:37.066Z,50.80
2023-04-27T17:27:09.711Z,51.00
2023-04-27T17:29:42.565Z,51.50
2023-04-27T17:32:15.483Z,52.50
2023-04-27T17:34:48.332Z,54.20
2023-04-27T17:37:20.948Z,55.40
2023-04-27T17:39:54.879Z,56.30
2023-04-27T17:42:27.565Z,56.90
2023-04-27T17:45:00.622Z,58.10
2023-04-27T17:47:33.806Z,59.10
2023-04-27T17:50:07.826Z,59.70
2023-04-27T17:52:40.541Z,60.70
2023-04-27T17:55:13.648Z,61.30
2023-04-27T17:57:46.347Z,61.50
2023-04-27T18:00:19.556Z,62.40
2023-04-27T18:02:52.214Z,62.60
2023-04-27T18:05:25.065Z,62.90
2023-04-27T18:07:57.572Z,63.80
2023-04-27T18:10:30.351Z,63.90
2023-04-27T18:13:03.470Z,64.80
2023-04-27T18:15:36.796Z,65.10
2023-04-27T18:18:10.439Z,65.30
2023-04-27T18:20:45.162Z,65.20
2023-04-27T18:23:20.663Z,65.70
2023-04-27T18:25:53.433Z,66.00
2023-04-27T18:28:26.098Z,66.20
2023-04-27T18:30:58.865Z,66.50
2023-04-27T18:33:31.357Z,67.20
2023-04-27T18:36:04.318Z,67.50
2023-04-27T18:38:36.872Z,67.90
2023-04-27T18:41:09.920Z,68.80
2023-04-27T18:43:42.416Z,69.20
2023-04-27T18:46:15.414Z,70.10
2023-04-27T18:48:47.970Z,70.50
2023-04-27T18:51:23.046Z,70.80
2023-04-27T18:53:56.160Z,71.10
2023-04-27T18:56:28.959Z,71.80
2023-04-27T18:59:01.532Z,72.30
2023-04-27T19:01:36.285Z,73.40
2023-04-27T19:04:09.043Z,73.00
2023-04-27T19:06:42.155Z,74.30
2023-04-27T19:09:14.912Z,74.70
2023-04-27T19:11:56.142Z,74.70
2023-04-27T19:14:32.466Z,75.40
2023-04-27T19:17:06.605Z,76.10
2023-04-27T19:19:40.709Z,76.60
2023-04-27T19:22:15.449Z,76.90
2023-04-27T19:24:48.739Z,77.00
2023-04-27T19:27:22.023Z,77.70
2023-04-27T19:29:58.733Z,77.90
2023-04-27T19:32:34.302Z,78.20
2023-04-27T19:35:11.716Z,78.60
2023-04-27T19:37:44.583Z,78.10
2023-04-27T19:40:20.739Z,78.60
2023-04-27T19:42:54.947Z,79.50
2023-04-27T19:45:27.551Z,80.40
2023-04-27T19:48:09.287Z,80.60
2023-04-27T19:51:12.589Z,81.10
2023-04-27T19:53:53.148Z,82.00
2023-04-27T19:56:25.804Z,83.50
2023-04-27T19:58:58.888Z,84.80
2023-04-27T20:01:31.854Z,85.40
2023-04-27T20:04:05.055Z,85.20
2023-04-27T20:06:37.965Z,85.90
2023-04-27T20:09:11.242Z,86.00
2023-04-27T20:11:43.836Z,86.60
2023-04-27T20:14:17.016Z,88.00
2023-04-27T20:16:49.795Z,88.70
2023-04-27T20:19:28.946Z,89.10
2023-04-27T20:22:03.771Z,90.40
2023-04-27T20:24:38.380Z,90.60
2023-04-27T20:27:13.280Z,91.60
2023-04-27T20:30:21.178Z,92.50
2023-04-27T20:32:59.492Z,92.60
2023-04-27T20:35:32.326Z,93.80
2023-04-27T20:38:05.863Z,93.90
2023-04-27T20:40:42.094Z,94.60
2023-04-27T20:43:14.895Z,96.10
2023-04-27T20:45:47.705Z,97.00
2023-04-27T20:48:20.343Z,98.10
2023-04-27T20:50:53.169Z,98.60
2023-04-27T20:53:26.288Z,99.00
2023-04-27T20:56:01.186Z,99.10
2023-04-27T20:58:33.796Z,99.60
2023-04-27T21:01:09.325Z,99.90
2023-04-27T21:03:42.113Z,99.90
2023-04-27T21:06:15.415Z,99.90
2023-04-27T21:08:47.953Z,99.90
2023-04-27T21:11:20.727Z,99.90
2023-04-27T21:13:53.300Z,99.90
2023-04-27T21:16:26.378Z,99.90
2023-04-27T21:18:58.949Z,99.90
2023-04-27T21:21:31.736Z,99.90
2023-04-27T21:24:08.570Z,99.90
2023-04-27T21:26:42.420Z,99.90
2023-04-27T21:29:15.075Z,99.90
2023-04-27T21:31:47.842Z,99.90
2023-04-27T21:34:20.750Z,99.90
2023-04-27T21:36:53.693Z,99.90
2023-04-27T21:39:26.323Z,99.90
2023-04-27T21:41:59.084Z,99.90
2023-04-27T21:44:31.578Z,99.90
2023-04-27T21:47:04.468Z,99.90
2023-04-27T21:49:37.029Z,99.90
2023-04-27T21:52:11.151Z,99.90
2023-04-27T21:54:43.679Z,99.90
2023-04-27T21:57:18.729Z,99.90
2023-04-27T21:59:52.496Z,99.90
2023-04-27T22:02:25.516Z,99.90
2023-04-27T22:04:59.247Z,99.90
2023-04-27T22:07:32.675Z,99.90
2023-04-27T22:10:05.941Z,99.90
2023-04-27T22:12:38.785Z,99.90
2023-04-27T22:15:11.529Z,99.90
2023-04-27T22:17:44.543Z,99.90
2023-04-27T22:20:17.511Z,99.90
2023-04-27T22:22:50.578Z,99.90
2023-04-27T22:25:23.535Z,99.90
2023-04-27T22:27:56.354Z,99.90
2023-04-27T22:30:29.845Z,99.90
2023-04-27T22:33:03.397Z,99.90
2023-04-27T22:35:37.096Z,99.90
2023-04-27T22:38:09.898Z,99.90
2023-04-27T22:40:42.818Z,99.90
2023-04-27T22:43:15.631Z,99.90
2023-04-27T22:45:48.114Z,99.90
2023-04-27T22:48:21.244Z,99.90
2023-04-27T22:50:53.780Z,99.90
2023-04-27T22:53:26.816Z,99.90
2023-04-27T22:55:59.323Z,99.90
2023-04-27T22:58:32.075Z,99.90
2023-04-27T23:01:04.750Z,99.90
2023-04-27T23:03:37.684Z,99.90
2023-04-27T23:06:14.471Z,99.90
2023-04-27T23:08:47.516Z,99.90
2023-04-27T23:11:20.078Z,99.90
2023-04-27T23:13:54.652Z,99.90
2023-04-27T23:16:27.271Z,99.90
2023-04-27T23:19:00.025Z,99.90
2023-04-27T23:21:32.717Z,99.90
2023-04-27T23:24:05.942Z,99.90
2023-04-27T23:26:39.009Z,99.90
2023-04-27T23:29:11.890Z,99.90
2023-04-27T23:31:44.371Z,99.90
2023-04-27T23:34:17.285Z,99.90
2023-04-27T23:36:50.122Z,99.90
2023-04-27T23:39:23.201Z,99.90
2023-04-27T23:41:55.743Z,99.90
2023-04-27T23:44:28.521Z,99.90
2023-04-27T23:47:01.016Z,99.90
2023-04-27T23:49:33.806Z,99.90
2023-04-27T23:52:06.355Z,99.90
2023-04-27T23:54:39.122Z,99.90
2023-04-27T23:57:11.713Z,99.90
2023-04-27T23:59:44.468Z,99.90
